Hi'Ialakai — WTEY — position and weather

sailwx.info

Track history (hours):
 
Tides and Currents Weather Stations Pressure Air Temp Water Temp Dewpoint Dewpoint Depression Visibility Wind Speed Wind Dir Waves Ship Positions

Oceanographic research ship Hi'Ialakai (USA)

Detailed information on ship capabilities available from University of Delaware's Ocean Information Center.

Last reported at 2017-Mar-29 22:54 UTC. Time now 2017-Mar-30 00:56 UTC.
Position N 12°30' W 159°42'.

Type: Passenger vessel. MMSI: 368926089.

Wind from 070 at 25 knots

Barometer 1014.8 mb
Air temperature 27.9 ° C
Water temperature 26.7 ° C

Date/timePositionNaut miles runAvg speedWind from/ knotsBaromVisibWave heightAir tempDewpointWater temp
2017-Mar-29 22:54N 12°30' W 159°42'6 6.1 070 / 251014.8 27.9 26.7
2017-Mar-29 21:55N 12°36' W 159°42'6 6.0 070 / 181016.2 27.9 26.7
2017-Mar-29 20:56N 12°36' W 159°48'6 6.0 070 / 201016.8 27.7 26.6
2017-Mar-29 19:56N 12°42' W 159°48'8 8.5 070 / 251016.3 27.8 26.7
2017-Mar-29 18:57N 12°48' W 159°54'6 6.1 070 / 251016.1 27.5 26.7
2017-Mar-29 17:58N 12°54' W 159°54'8 8.5 060 / 141016.1 28.2 26.6
2017-Mar-29 16:59N 13°00' W 159°48'1713.8 060 / 141015.5 27.1 26.8
2017-Mar-29 15:46N 13°12' W 159°36'8 8.5 060 / 141015.0 26.9 26.7
2017-Mar-29 14:47N 13°18' W 159°30'8 8.5 060 / 141014.9 26.9 26.5
2017-Mar-29 13:48N 13°24' W 159°24'8 8.7 050 / 141015.0 26.9 26.6
2017-Mar-29 12:50N 13°30' W 159°18'1315.7 060 / 141015.0 27.0 26.6
2017-Mar-29 12:00N 13°36' W 159°06'650.0 060 / 141014.2 5.4 26.022.5-26.6
2017-Mar-29 11:53N 13°36' W 159°12'8 8.5 060 / 131015.4 26.8 26.5
2017-Mar-29 10:54N 13°42' W 159°06'1313.3 060 / 141016.2 26.8 26.5
2017-Mar-29 09:55N 13°48' W 158°54'8 8.5 060 / 131016.8 26.6 26.2
2017-Mar-29 08:56N 13°54' W 158°48'8 8.5 060 / 131017.0 26.9 26.2
2017-Mar-29 07:57N 14°00' W 158°42'1313.6 060 / 141017.0 26.6 26.2
2017-Mar-29 06:58N 14°12' W 158°36'1313.5 060 / 151016.7 26.6 26.2
2017-Mar-29 06:00N 14°18' W 158°24'6174.4 060 / 131014.8 5.4 26.022.0-26.0
2017-Mar-29 05:58N 14°18' W 158°30'8 8.5 060 / 131016.1 26.9 26.0
2017-Mar-29 04:59N 14°24' W 158°24'6 4.9 060 / 141015.8 27.2 26.0
2017-Mar-29 03:46N 14°30' W 158°24'1313.6 080 / 241014.9 27.1 25.9
2017-Mar-29 02:47N 14°42' W 158°30'6 6.1 080 / 231014.6 27.0 25.9
2017-Mar-29 01:48N 14°48' W 158°30'8 8.5 070 / 231014.7 27.1 25.9
2017-Mar-29 00:49N 14°54' W 158°36'1316.3 080 / 221015.1 27.1 26.0
2017-Mar-29 00:00N 15°06' W 158°30'8 7.3 080 / 231014.4 5.4 26.022.5-26.0
2017-Mar-28 22:51N 15°12' W 158°36'1313.5 080 / 221016.8 27.0 25.9
2017-Mar-28 21:52N 15°24' W 158°42'6 6.1 080 / 221017.9 27.1 25.9
2017-Mar-28 20:53N 15°30' W 158°42'1212.2 080 / 211018.7 27.0 25.8
2017-Mar-28 19:54N 15°42' W 158°42'6 6.1 080 / 211018.9 26.9 25.8
2017-Mar-28 18:55N 15°48' W 158°42'1718.2 060 / 151019.1 27.7 25.8
2017-Mar-28 18:00N 16°00' W 158°30'686.5 070 / 131018.7 5.4 27.121.3-25.8
2017-Mar-28 17:56N 16°00' W 158°36'8 8.5 070 / 141018.7 27.3 25.8
2017-Mar-28 16:57N 16°06' W 158°30'8 8.3 060 / 151018.0 26.1 25.7
2017-Mar-28 15:57N 16°12' W 158°24'8 8.5 060 / 161017.6 25.6 25.7
2017-Mar-28 14:58N 16°18' W 158°18'1313.2 060 / 151017.4 25.9 25.8
2017-Mar-28 13:59N 16°24' W 158°06'1310.9 060 / 161017.4 26.1 25.8
2017-Mar-28 12:46N 16°36' W 158°00'1316.9 060 / 121018.0 24.7 25.7
2017-Mar-28 12:00N 16°42' W 157°48'626.5 040 / 131017.1 2.2 23.521.4-25.8
2017-Mar-28 11:47N 16°42' W 157°54'8 8.4 050 / 141018.7 26.0 25.8
2017-Mar-28 10:48N 16°48' W 157°48'8 8.4 050 / 131019.3 26.3 25.8
2017-Mar-28 09:49N 16°54' W 157°42'1313.5 050 / 141019.8 26.3 25.8
2017-Mar-28 08:50N 17°06' W 157°36'6 6.1 070 / 261019.9 26.2 25.8
2017-Mar-28 07:51N 17°12' W 157°36'8 8.4 070 / 231020.0 25.4 25.8
2017-Mar-28 06:52N 17°18' W 157°42'1315.3 080 / 251019.7 26.0 25.9
2017-Mar-28 06:00N 17°30' W 157°36'649.0 080 / 231017.9 5.4 25.022.9-25.9
2017-Mar-28 05:53N 17°30' W 157°42'6 6.1 080 / 211019.2 26.0 25.9
2017-Mar-28 04:54N 17°36' W 157°42'8 8.4 080 / 271018.4 25.5 26.1
2017-Mar-28 03:55N 17°42' W 157°48'1212.2 080 / 241017.9 26.2 26.2
2017-Mar-28 02:56N 17°54' W 157°48'6 6.0 080 / 231017.8 26.6 26.0
2017-Mar-28 01:56N 18°00' W 157°48'8 8.4 090 / 221017.8 26.4 26.0
2017-Mar-28 00:57N 18°06' W 157°54'1314.0 090 / 211018.1 26.5 26.0
2017-Mar-28 00:00N 18°18' W 157°48'1312.7 080 / 211018.0 5.4 25.521.2-25.9
2017-Mar-27 22:59N 18°24' W 158°00'12 9.9 080 / 221019.9 26.6 25.8
2017-Mar-27 21:46N 18°36' W 158°00'6 6.1 090 / 201020.8 26.9 25.8
2017-Mar-27 20:47N 18°42' W 158°00'1313.5 080 / 211021.1 26.8 25.7
2017-Mar-27 19:48N 18°54' W 158°06'6 6.1 080 / 231021.2 27.0 25.7
2017-Mar-27 18:49N 19°00' W 158°06'810.1 070 / 231020.6 26.5 25.8
2017-Mar-27 18:00N 19°06' W 158°00'849.5 120 / 181018.7 5.4 25.021.4-26.0
2017-Mar-27 17:50N 19°12' W 158°06'8 8.4 120 / 161019.8 26.5 26.0
2017-Mar-27 16:51N 19°18' W 158°12'6 6.1 150 / 141019.8 26.3 26.0
2017-Mar-27 15:52N 19°24' W 158°12'6 6.1 150 / 91019.9 26.0 25.9
2017-Mar-27 14:53N 19°30' W 158°12'1313.5 150 / 71019.6 25.8 25.9
2017-Mar-27 13:54N 19°42' W 158°18'8 8.2 190 / 61019.7 26.0 25.9
2017-Mar-27 12:54N 19°48' W 158°12'8 9.2 230 / 61020.0 26.0 25.9
2017-Mar-27 12:00N 19°54' W 158°06'0 0.0 1018.7 5.4 24.821.1-26.0
2017-Mar-27 11:55N 19°54' W 158°06'8 8.4 180 / 41020.4 25.7 25.9
2017-Mar-27 10:56N 20°00' W 158°00'8 8.4 090 / 61020.2 26.0 25.9
2017-Mar-27 09:57N 20°06' W 157°54'6 6.1 070 / 141020.5 25.9 25.9
2017-Mar-27 08:58N 20°12' W 157°54'8 8.4 070 / 151021.0 26.4 25.9
2017-Mar-27 07:59N 20°18' W 157°48'8 8.4 050 / 141021.3 26.4 25.8
2017-Mar-27 07:00N 20°24' W 157°42'1313.3 090 / 231021.0 26.4 25.8
2017-Mar-27 06:00N 20°36' W 157°36'625.9 110 / 131019.2 5.4 25.522.0-26.0
2017-Mar-27 05:47N 20°36' W 157°42'6 6.1 110 / 121020.7 26.4 26.0
2017-Mar-27 04:48N 20°42' W 157°42'1212.2 080 / 151020.5 26.5 26.0
2017-Mar-27 03:49N 20°54' W 157°42'8 8.3 080 / 221020.3 26.4 25.9
2017-Mar-27 02:50N 21°00' W 157°36'1212.2 040 / 171020.4 27.0 25.8
2017-Mar-27 01:51N 21°12' W 157°36'0 0.0 040 / 171020.3 27.0 25.7
2017-Mar-27 00:51N 21°12' W 157°36'6 2.8 080 / 241020.5 26.3 1.125.8
2017-Mar-26 22:53N 21°12' W 157°42'6 6.1 060 / 171022.1 26.2 25.6
2017-Mar-26 21:58N 21°12' W 157°48'6 5.8 060 / 241022.4 26.4 25.6
2017-Mar-26 21:00N 21°12' W 157°54'   070 / 121023.8 27.7 25.7
Track history (hours):
 
Tides and Currents Weather Stations Pressure Air Temp Water Temp Dewpoint Dewpoint Depression Visibility Wind Speed Wind Dir Waves Ship Positions

Oceanographic research ship Hi'Ialakai (USA)

Detailed information on ship capabilities available from University of Delaware's Ocean Information Center.

Last reported at 2017-Mar-29 22:54 UTC. Time now 2017-Mar-30 00:56 UTC.
Position N 12°30' W 159°42'.

Type: Passenger vessel. MMSI: 368926089.

Wind from 070 at 25 knots

Barometer 1014.8 mb
Air temperature 27.9 ° C
Water temperature 26.7 ° C

Date/timePositionNaut miles runAvg speedWind from/ knotsBaromVisibWave heightAir tempDewpointWater temp
2017-Mar-29 22:54N 12°30' W 159°42'6 6.1 070 / 251014.8 27.9 26.7
2017-Mar-29 21:55N 12°36' W 159°42'6 6.0 070 / 181016.2 27.9 26.7
2017-Mar-29 20:56N 12°36' W 159°48'6 6.0 070 / 201016.8 27.7 26.6
2017-Mar-29 19:56N 12°42' W 159°48'8 8.5 070 / 251016.3 27.8 26.7
2017-Mar-29 18:57N 12°48' W 159°54'6 6.1 070 / 251016.1 27.5 26.7
2017-Mar-29 17:58N 12°54' W 159°54'8 8.5 060 / 141016.1 28.2 26.6
2017-Mar-29 16:59N 13°00' W 159°48'1713.8 060 / 141015.5 27.1 26.8
2017-Mar-29 15:46N 13°12' W 159°36'8 8.5 060 / 141015.0 26.9 26.7
2017-Mar-29 14:47N 13°18' W 159°30'8 8.5 060 / 141014.9 26.9 26.5
2017-Mar-29 13:48N 13°24' W 159°24'8 8.7 050 / 141015.0 26.9 26.6
2017-Mar-29 12:50N 13°30' W 159°18'1315.7 060 / 141015.0 27.0 26.6
2017-Mar-29 12:00N 13°36' W 159°06'650.0 060 / 141014.2 5.4 26.022.5-26.6
2017-Mar-29 11:53N 13°36' W 159°12'8 8.5 060 / 131015.4 26.8 26.5
2017-Mar-29 10:54N 13°42' W 159°06'1313.3 060 / 141016.2 26.8 26.5
2017-Mar-29 09:55N 13°48' W 158°54'8 8.5 060 / 131016.8 26.6 26.2
2017-Mar-29 08:56N 13°54' W 158°48'8 8.5 060 / 131017.0 26.9 26.2
2017-Mar-29 07:57N 14°00' W 158°42'1313.6 060 / 141017.0 26.6 26.2
2017-Mar-29 06:58N 14°12' W 158°36'1313.5 060 / 151016.7 26.6 26.2
2017-Mar-29 06:00N 14°18' W 158°24'6174.4 060 / 131014.8 5.4 26.022.0-26.0
2017-Mar-29 05:58N 14°18' W 158°30'8 8.5 060 / 131016.1 26.9 26.0
2017-Mar-29 04:59N 14°24' W 158°24'6 4.9 060 / 141015.8 27.2 26.0
2017-Mar-29 03:46N 14°30' W 158°24'1313.6 080 / 241014.9 27.1 25.9
2017-Mar-29 02:47N 14°42' W 158°30'6 6.1 080 / 231014.6 27.0 25.9
2017-Mar-29 01:48N 14°48' W 158°30'8 8.5 070 / 231014.7 27.1 25.9
2017-Mar-29 00:49N 14°54' W 158°36'1316.3 080 / 221015.1 27.1 26.0
2017-Mar-29 00:00N 15°06' W 158°30'8 7.3 080 / 231014.4 5.4 26.022.5-26.0
2017-Mar-28 22:51N 15°12' W 158°36'1313.5 080 / 221016.8 27.0 25.9
2017-Mar-28 21:52N 15°24' W 158°42'6 6.1 080 / 221017.9 27.1 25.9
2017-Mar-28 20:53N 15°30' W 158°42'1212.2 080 / 211018.7 27.0 25.8
2017-Mar-28 19:54N 15°42' W 158°42'6 6.1 080 / 211018.9 26.9 25.8
2017-Mar-28 18:55N 15°48' W 158°42'1718.2 060 / 151019.1 27.7 25.8
2017-Mar-28 18:00N 16°00' W 158°30'686.5 070 / 131018.7 5.4 27.121.3-25.8
2017-Mar-28 17:56N 16°00' W 158°36'8 8.5 070 / 141018.7 27.3 25.8
2017-Mar-28 16:57N 16°06' W 158°30'8 8.3 060 / 151018.0 26.1 25.7
2017-Mar-28 15:57N 16°12' W 158°24'8 8.5 060 / 161017.6 25.6 25.7
2017-Mar-28 14:58N 16°18' W 158°18'1313.2 060 / 151017.4 25.9 25.8
2017-Mar-28 13:59N 16°24' W 158°06'1310.9 060 / 161017.4 26.1 25.8
2017-Mar-28 12:46N 16°36' W 158°00'1316.9 060 / 121018.0 24.7 25.7
2017-Mar-28 12:00N 16°42' W 157°48'626.5 040 / 131017.1 2.2 23.521.4-25.8
2017-Mar-28 11:47N 16°42' W 157°54'8 8.4 050 / 141018.7 26.0 25.8
2017-Mar-28 10:48N 16°48' W 157°48'8 8.4 050 / 131019.3 26.3 25.8
2017-Mar-28 09:49N 16°54' W 157°42'1313.5 050 / 141019.8 26.3 25.8
2017-Mar-28 08:50N 17°06' W 157°36'6 6.1 070 / 261019.9 26.2 25.8
2017-Mar-28 07:51N 17°12' W 157°36'8 8.4 070 / 231020.0 25.4 25.8
2017-Mar-28 06:52N 17°18' W 157°42'1315.3 080 / 251019.7 26.0 25.9
2017-Mar-28 06:00N 17°30' W 157°36'649.0 080 / 231017.9 5.4 25.022.9-25.9
2017-Mar-28 05:53N 17°30' W 157°42'6 6.1 080 / 211019.2 26.0 25.9
2017-Mar-28 04:54N 17°36' W 157°42'8 8.4 080 / 271018.4 25.5 26.1
2017-Mar-28 03:55N 17°42' W 157°48'1212.2 080 / 241017.9 26.2 26.2
2017-Mar-28 02:56N 17°54' W 157°48'6 6.0 080 / 231017.8 26.6 26.0
2017-Mar-28 01:56N 18°00' W 157°48'8 8.4 090 / 221017.8 26.4 26.0
2017-Mar-28 00:57N 18°06' W 157°54'1314.0 090 / 211018.1 26.5 26.0
2017-Mar-28 00:00N 18°18' W 157°48'1312.7 080 / 211018.0 5.4 25.521.2-25.9
2017-Mar-27 22:59N 18°24' W 158°00'12 9.9 080 / 221019.9 26.6 25.8
2017-Mar-27 21:46N 18°36' W 158°00'6 6.1 090 / 201020.8 26.9 25.8
2017-Mar-27 20:47N 18°42' W 158°00'1313.5 080 / 211021.1 26.8 25.7
2017-Mar-27 19:48N 18°54' W 158°06'6 6.1 080 / 231021.2 27.0 25.7
2017-Mar-27 18:49N 19°00' W 158°06'810.1 070 / 231020.6 26.5 25.8
2017-Mar-27 18:00N 19°06' W 158°00'849.5 120 / 181018.7 5.4 25.021.4-26.0
2017-Mar-27 17:50N 19°12' W 158°06'8 8.4 120 / 161019.8 26.5 26.0
2017-Mar-27 16:51N 19°18' W 158°12'6 6.1 150 / 141019.8 26.3 26.0
2017-Mar-27 15:52N 19°24' W 158°12'6 6.1 150 / 91019.9 26.0 25.9
2017-Mar-27 14:53N 19°30' W 158°12'1313.5 150 / 71019.6 25.8 25.9
2017-Mar-27 13:54N 19°42' W 158°18'8 8.2 190 / 61019.7 26.0 25.9
2017-Mar-27 12:54N 19°48' W 158°12'8 9.2 230 / 61020.0 26.0 25.9
2017-Mar-27 12:00N 19°54' W 158°06'0 0.0 1018.7 5.4 24.821.1-26.0
2017-Mar-27 11:55N 19°54' W 158°06'8 8.4 180 / 41020.4 25.7 25.9
2017-Mar-27 10:56N 20°00' W 158°00'8 8.4 090 / 61020.2 26.0 25.9
2017-Mar-27 09:57N 20°06' W 157°54'6 6.1 070 / 141020.5 25.9 25.9
2017-Mar-27 08:58N 20°12' W 157°54'8 8.4 070 / 151021.0 26.4 25.9
2017-Mar-27 07:59N 20°18' W 157°48'8 8.4 050 / 141021.3 26.4 25.8
2017-Mar-27 07:00N 20°24' W 157°42'1313.3 090 / 231021.0 26.4 25.8
2017-Mar-27 06:00N 20°36' W 157°36'625.9 110 / 131019.2 5.4 25.522.0-26.0
2017-Mar-27 05:47N 20°36' W 157°42'6 6.1 110 / 121020.7 26.4 26.0
2017-Mar-27 04:48N 20°42' W 157°42'1212.2 080 / 151020.5 26.5 26.0
2017-Mar-27 03:49N 20°54' W 157°42'8 8.3 080 / 221020.3 26.4 25.9
2017-Mar-27 02:50N 21°00' W 157°36'1212.2 040 / 171020.4 27.0 25.8
2017-Mar-27 01:51N 21°12' W 157°36'0 0.0 040 / 171020.3 27.0 25.7
2017-Mar-27 00:51N 21°12' W 157°36'6 2.8 080 / 241020.5 26.3 1.125.8
2017-Mar-26 22:53N 21°12' W 157°42'6 6.1 060 / 171022.1 26.2 25.6
2017-Mar-26 21:58N 21°12' W 157°48'6 5.8 060 / 241022.4 26.4 25.6
2017-Mar-26 21:00N 21°12' W 157°54'   070 / 121023.8 27.7 25.7

Dump ship's entire track history